Time;durP1;ratioP1;P1;durP2;ratioP2;P2;SDS_P1;SDS_P2;PMS_P1;PMS_P2;Temp;Humidity;BMP_temperature;BMP_pressure;BME280_temperature;BME280_humidity;BME280_pressure;Samples;Min_cycle;Max_cycle;Signal;HPM_P1;HPM_P2
2022/05/05 00:02:38;;;;;;;13.57;10.95;;;;;;;;;;12636120;23;20311;-73
2022/05/05 00:07:39;;;;;;;12.38;11.05;;;;;;;;;;12637315;23;20201;-72
2022/05/05 00:18:00;;;;;;;12.57;11.23;;;;;;;;;;12611613;23;20216;-71
2022/05/05 00:23:01;;;;;;;13.48;11.02;;;;;;;;;;12636464;23;20259;-73
2022/05/05 00:28:02;;;;;;;14.52;11.48;;;;;;;;;;12637361;23;20617;-73
2022/05/05 00:33:03;;;;;;;16.88;9.93;;;;;;;;;;12632353;23;20220;-73
2022/05/05 00:38:04;;;;;;;14.95;10.85;;;;;;;;;;12610920;23;20185;-76
2022/05/05 00:43:05;;;;;;;11.57;10.35;;;;;;;;;;12635116;23;20216;-77
2022/05/05 00:48:07;;;;;;;14.27;11.30;;;;;;;;;;12636669;23;20274;-75
2022/05/05 00:53:08;;;;;;;13.65;9.98;;;;;;;;;;12644852;23;20189;-75
2022/05/05 00:58:09;;;;;;;15.40;11.85;;;;;;;;;;12646595;23;20234;-76
2022/05/05 01:03:11;;;;;;;16.48;10.40;;;;;;;;;;12620128;23;20200;-75
2022/05/05 01:08:12;;;;;;;15.82;11.52;;;;;;;;;;12645505;23;20265;-75
2022/05/05 01:13:13;;;;;;;14.57;11.60;;;;;;;;;;12642607;23;20208;-74
2022/05/05 01:18:14;;;;;;;14.85;13.32;;;;;;;;;;12646286;23;20187;-75
2022/05/05 01:23:15;;;;;;;14.18;11.73;;;;;;;;;;12645447;23;20503;-75
2022/05/05 01:28:16;;;;;;;13.13;11.75;;;;;;;;;;12646797;23;20259;-75
2022/05/05 01:33:17;;;;;;;15.90;11.18;;;;;;;;;;12611946;23;20624;-73
2022/05/05 01:38:20;;;;;;;16.17;12.23;;;;;;;;;;12586807;23;20184;-75
2022/05/05 01:43:21;;;;;;;13.52;12.05;;;;;;;;;;12637404;23;20209;-76
2022/05/05 01:48:22;;;;;;;17.60;13.52;;;;;;;;;;12641744;23;20276;-75
2022/05/05 01:53:23;;;;;;;16.38;13.48;;;;;;;;;;12612139;23;20208;-75
2022/05/05 01:58:24;;;;;;;16.13;13.55;;;;;;;;;;12611723;23;20189;-76
2022/05/05 02:03:25;;;;;;;19.27;14.55;;;;;;;;;;12611084;23;20663;-75
2022/05/05 02:08:26;;;;;;;15.02;13.48;;;;;;;;;;12612188;23;20272;-75
2022/05/05 02:13:27;;;;;;;20.77;13.50;;;;;;;;;;12611512;23;20196;-75
2022/05/05 02:18:28;;;;;;;17.35;13.20;;;;;;;;;;12587790;23;20841;-75
2022/05/05 02:23:29;;;;;;;18.08;13.05;;;;;;;;;;12640674;23;20320;-75
2022/05/05 02:28:31;;;;;;;18.13;11.85;;;;;;;;;;12635003;23;20289;-75
2022/05/05 02:33:32;;;;;;;14.65;12.13;;;;;;;;;;12639325;23;20281;-75
2022/05/05 02:38:42;;;;;;;18.00;11.55;;;;;;;;;;12639835;23;20265;-75
2022/05/05 02:43:43;;;;;;;12.50;10.70;;;;;;;;;;12613526;23;20172;-75
2022/05/05 02:48:44;;;;;;;11.93;9.18;;;;;;;;;;12642228;23;20183;-76
2022/05/05 02:59:05;;;;;;;12.82;10.00;;;;;;;;;;12646480;23;20177;-74
2022/05/05 03:04:06;;;;;;;33.47;10.27;;;;;;;;;;12619583;23;20262;-74
2022/05/05 03:09:07;;;;;;;15.20;10.05;;;;;;;;;;12618401;23;20227;-74
2022/05/05 03:14:08;;;;;;;9.70;8.85;;;;;;;;;;12640543;23;20224;-75
2022/05/05 03:19:10;;;;;;;10.23;9.20;;;;;;;;;;12613818;23;20224;-75
2022/05/05 03:24:11;;;;;;;13.18;9.95;;;;;;;;;;12639520;23;20185;-74
2022/05/05 03:29:12;;;;;;;10.52;8.07;;;;;;;;;;12561583;23;1353970;-75
2022/05/05 03:34:13;;;;;;;10.63;8.32;;;;;;;;;;12644859;23;20243;-75
2022/05/05 03:39:14;;;;;;;8.93;8.25;;;;;;;;;;12644990;23;20184;-74
2022/05/05 03:44:15;;;;;;;11.88;7.90;;;;;;;;;;12643569;23;20834;-75
2022/05/05 03:49:16;;;;;;;12.60;8.70;;;;;;;;;;12647430;23;20177;-76
2022/05/05 03:54:17;;;;;;;9.75;8.30;;;;;;;;;;12643366;23;21055;-75
2022/05/05 03:59:18;;;;;;;14.77;10.15;;;;;;;;;;12642444;23;20351;-75
2022/05/05 04:04:19;;;;;;;14.75;9.18;;;;;;;;;;12645262;23;20201;-75
2022/05/05 04:09:21;;;;;;;11.57;10.50;;;;;;;;;;12639382;23;20197;-75
2022/05/05 04:14:22;;;;;;;11.52;8.98;;;;;;;;;;12640316;23;20753;-75
2022/05/05 04:19:23;;;;;;;14.13;9.77;;;;;;;;;;12638778;23;20185;-75
2022/05/05 04:24:24;;;;;;;16.35;9.48;;;;;;;;;;12645296;23;20237;-75
2022/05/05 04:29:26;;;;;;;12.77;9.20;;;;;;;;;;12646702;23;20208;-74
2022/05/05 04:34:27;;;;;;;13.30;9.27;;;;;;;;;;12642133;23;20979;-74
2022/05/05 04:39:28;;;;;;;14.80;9.20;;;;;;;;;;12643694;23;20601;-74
2022/05/05 04:44:29;;;;;;;16.13;8.38;;;;;;;;;;12640030;23;20204;-74
2022/05/05 04:49:31;;;;;;;13.45;9.40;;;;;;;;;;12643643;23;20567;-75
2022/05/05 04:54:32;;;;;;;10.63;8.88;;;;;;;;;;12645713;23;20534;-74
2022/05/05 04:59:33;;;;;;;12.35;8.88;;;;;;;;;;12645274;23;20268;-76
2022/05/05 05:04:34;;;;;;;10.68;7.85;;;;;;;;;;12635615;23;20263;-75
2022/05/05 05:09:35;;;;;;;9.13;7.93;;;;;;;;;;12611162;23;20191;-75
2022/05/05 05:14:36;;;;;;;8.90;8.20;;;;;;;;;;12645616;23;20181;-76
2022/05/05 05:19:37;;;;;;;10.98;7.68;;;;;;;;;;12643668;23;20172;-75
2022/05/05 05:24:38;;;;;;;8.60;7.70;;;;;;;;;;12644712;23;20181;-75
2022/05/05 05:29:39;;;;;;;8.60;7.03;;;;;;;;;;12645813;23;20173;-75
2022/05/05 05:34:40;;;;;;;11.75;6.90;;;;;;;;;;12643516;23;20209;-74
2022/05/05 05:39:41;;;;;;;10.63;6.57;;;;;;;;;;12642237;23;20244;-74
2022/05/05 05:44:42;;;;;;;11.27;7.97;;;;;;;;;;12645938;23;20257;-75
2022/05/05 05:49:43;;;;;;;7.90;7.20;;;;;;;;;;12639326;23;20657;-75
2022/05/05 05:54:44;;;;;;;7.63;6.93;;;;;;;;;;12636595;23;20240;-75
2022/05/05 05:59:45;;;;;;;8.85;6.90;;;;;;;;;;12640336;23;20251;-74
2022/05/05 06:04:46;;;;;;;10.43;7.03;;;;;;;;;;12639631;23;20237;-74
2022/05/05 06:09:48;;;;;;;8.63;6.90;;;;;;;;;;12640786;23;20293;-75
2022/05/05 06:14:49;;;;;;;12.20;7.50;;;;;;;;;;12647572;23;20223;-75
2022/05/05 06:19:50;;;;;;;9.52;6.78;;;;;;;;;;12635816;23;20489;-74
2022/05/05 06:24:51;;;;;;;12.35;7.72;;;;;;;;;;12632079;23;20181;-74
2022/05/05 06:29:52;;;;;;;10.25;6.75;;;;;;;;;;12632578;23;20969;-74
2022/05/05 06:34:54;;;;;;;10.30;7.38;;;;;;;;;;12642575;23;20211;-75
2022/05/05 06:39:55;;;;;;;11.43;7.43;;;;;;;;;;12619842;23;20698;-74
2022/05/05 06:44:56;;;;;;;17.42;7.15;;;;;;;;;;12619502;23;20185;-74
2022/05/05 06:49:57;;;;;;;11.02;7.15;;;;;;;;;;12648043;23;20521;-74
2022/05/05 06:54:58;;;;;;;13.75;7.53;;;;;;;;;;12643838;23;20180;-73
2022/05/05 06:59:59;;;;;;;11.88;7.30;;;;;;;;;;12642813;23;20185;-74
2022/05/05 07:15:40;;;;;;;13.27;8.07;;;;;;;;;;12618762;23;20636;-73
2022/05/05 07:20:41;;;;;;;13.45;7.93;;;;;;;;;;12646335;23;20192;-74
2022/05/05 07:25:43;;;;;;;12.52;7.53;;;;;;;;;;12635280;23;20213;-73
2022/05/05 07:30:44;;;;;;;11.40;7.72;;;;;;;;;;12587293;23;20891;-73
2022/05/05 07:35:47;;;;;;;15.48;7.70;;;;;;;;;;12587844;23;20185;-74
2022/05/05 07:40:49;;;;;;;12.27;8.15;;;;;;;;;;12561556;23;20176;-74
2022/05/05 07:45:50;;;;;;;8.63;7.97;;;;;;;;;;12584543;23;20177;-73
2022/05/05 07:50:51;;;;;;;11.43;7.72;;;;;;;;;;12583746;23;20193;-73
2022/05/05 07:55:52;;;;;;;13.30;8.25;;;;;;;;;;12557668;23;20182;-74
2022/05/05 08:00:53;;;;;;;8.73;7.38;;;;;;;;;;12580814;23;20204;-74
2022/05/05 08:05:54;;;;;;;9.68;8.20;;;;;;;;;;12559380;23;20170;-73
2022/05/05 08:10:56;;;;;;;8.85;7.90;;;;;;;;;;12561332;23;20192;-74
2022/05/05 08:15:57;;;;;;;14.32;8.18;;;;;;;;;;12558603;23;20189;-75
2022/05/05 08:20:59;;;;;;;8.40;7.00;;;;;;;;;;12536146;23;20485;-73
2022/05/05 08:31:20;;;;;;;12.43;7.53;;;;;;;;;;12643771;23;20228;-73
2022/05/05 08:36:21;;;;;;;9.10;6.40;;;;;;;;;;12619483;23;20205;-73
2022/05/05 08:41:22;;;;;;;11.93;7.22;;;;;;;;;;12646185;23;20204;-73
2022/05/05 08:46:28;;;;;;;11.18;6.63;;;;;;;;;;12593264;23;20185;-73
2022/05/05 08:51:33;;;;;;;8.73;6.68;;;;;;;;;;12643992;23;20196;-74
2022/05/05 08:56:34;;;;;;;8.50;6.43;;;;;;;;;;12643598;23;20275;-73
2022/05/05 09:01:38;;;;;;;8.05;5.90;;;;;;;;;;12591916;23;20201;-73
2022/05/05 09:06:51;;;;;;;16.05;6.95;;;;;;;;;;12626177;23;20181;-73
2022/05/05 09:12:25;;;;;;;10.13;6.20;;;;;;;;;;12640528;23;20192;-74
2022/05/05 09:17:29;;;;;;;9.85;5.80;;;;;;;;;;12587234;23;20185;-73
2022/05/05 09:22:30;;;;;;;8.52;5.85;;;;;;;;;;12634989;23;20204;-73
2022/05/05 09:27:33;;;;;;;6.63;5.05;;;;;;;;;;12632435;23;20204;-74
2022/05/05 09:32:35;;;;;;;8.77;5.80;;;;;;;;;;12635344;23;20216;-73
2022/05/05 09:37:37;;;;;;;4.45;4.10;;;;;;;;;;12634553;23;20180;-73
2022/05/05 09:42:38;;;;;;;9.52;5.70;;;;;;;;;;12636283;23;20255;-74
2022/05/05 09:47:41;;;;;;;6.07;3.97;;;;;;;;;;12641442;23;20593;-73
2022/05/05 09:58:04;;;;;;;9.07;4.82;;;;;;;;;;12642286;23;20204;-74
2022/05/05 10:08:35;;;;;;;4.30;4.05;;;;;;;;;;12639463;23;20600;-76
2022/05/05 10:13:37;;;;;;;3.35;2.90;;;;;;;;;;12638497;23;20193;-76
2022/05/05 10:18:38;;;;;;;7.15;2.17;;;;;;;;;;12637743;23;20181;-75
2022/05/05 10:23:58;;;;;;;3.55;2.47;;;;;;;;;;12618982;23;20177;-75
2022/05/05 10:28:59;;;;;;;5.90;3.92;;;;;;;;;;12643060;23;20550;-76
2022/05/05 10:34:07;;;;;;;8.15;3.90;;;;;;;;;;12638712;23;20217;-75
2022/05/05 10:39:19;;;;;;;3.08;2.88;;;;;;;;;;12616300;23;20785;-75
2022/05/05 10:44:22;;;;;;;4.60;3.38;;;;;;;;;;12639510;23;20217;-74
2022/05/05 10:49:32;;;;;;;9.98;4.20;;;;;;;;;;12641693;23;20539;-76
2022/05/05 10:54:33;;;;;;;6.07;4.32;;;;;;;;;;12638326;23;20670;-77
2022/05/05 10:59:54;;;;;;;4.70;3.55;;;;;;;;;;12634522;23;20181;-76
2022/05/05 11:05:15;;;;;;;3.58;3.28;;;;;;;;;;12638736;23;20204;-76
2022/05/05 11:10:35;;;;;;;5.68;3.33;;;;;;;;;;12639036;23;20204;-75
2022/05/05 11:26:20;;;;;;;4.53;2.72;;;;;;;;;;12639668;23;20209;-75
2022/05/05 11:31:22;;;;;;;3.83;2.33;;;;;;;;;;12638169;23;20275;-77
2022/05/05 11:36:30;;;;;;;3.13;2.90;;;;;;;;;;12616657;23;20602;-76
2022/05/05 11:41:31;;;;;;;2.58;2.47;;;;;;;;;;12613755;23;20493;-76
2022/05/05 11:46:33;;;;;;;2.00;1.90;;;;;;;;;;12641054;23;20232;-76
2022/05/05 11:51:35;;;;;;;2.25;2.05;;;;;;;;;;12641566;23;20200;-75
2022/05/05 11:56:38;;;;;;;3.35;1.40;;;;;;;;;;12583556;23;20939;-76
2022/05/05 12:01:42;;;;;;;3.08;2.17;;;;;;;;;;12632931;23;20212;-75
2022/05/05 12:06:43;;;;;;;3.25;2.75;;;;;;;;;;12607346;23;20192;-76
2022/05/05 12:11:44;;;;;;;1.20;1.10;;;;;;;;;;12632375;23;20529;-75
2022/05/05 12:16:45;;;;;;;1.20;1.10;;;;;;;;;;12631827;23;20211;-75
2022/05/05 12:21:53;;;;;;;1.95;1.40;;;;;;;;;;12634491;23;20199;-76
2022/05/05 12:27:07;;;;;;;0.60;0.60;;;;;;;;;;12636132;23;20204;-76
2022/05/05 12:32:15;;;;;;;0.60;0.60;;;;;;;;;;12632758;23;21003;-74
2022/05/05 12:37:20;;;;;;;1.83;0.60;;;;;;;;;;12635961;23;20229;-75
2022/05/05 12:42:24;;;;;;;3.20;1.00;;;;;;;;;;12635321;23;20787;-74
2022/05/05 12:47:26;;;;;;;1.10;0.50;;;;;;;;;;12634308;23;20207;-73
2022/05/05 13:03:14;;;;;;;0.50;0.50;;;;;;;;;;12634777;23;20196;-73
2022/05/05 13:08:15;;;;;;;2.50;0.52;;;;;;;;;;12635301;23;20183;-74
2022/05/05 13:13:16;;;;;;;0.88;0.63;;;;;;;;;;12638990;23;20971;-75
2022/05/05 13:18:18;;;;;;;1.48;0.57;;;;;;;;;;12612468;23;20855;-75
2022/05/05 13:23:19;;;;;;;1.55;0.70;;;;;;;;;;12642294;23;20169;-75
2022/05/05 13:28:20;;;;;;;1.08;0.73;;;;;;;;;;12641260;23;20737;-75
2022/05/05 13:33:21;;;;;;;1.90;0.70;;;;;;;;;;12637182;23;20668;-74
2022/05/05 13:38:26;;;;;;;1.52;0.40;;;;;;;;;;12637978;23;20184;-74
2022/05/05 13:43:27;;;;;;;1.48;0.52;;;;;;;;;;12645461;23;20177;-74
2022/05/05 13:48:28;;;;;;;1.73;0.50;;;;;;;;;;12645373;23;20176;-75
2022/05/05 13:53:29;;;;;;;1.90;0.68;;;;;;;;;;12634816;23;20196;-74
2022/05/05 13:58:30;;;;;;;2.35;0.50;;;;;;;;;;12637173;23;20236;-74
2022/05/05 14:03:31;;;;;;;1.05;0.60;;;;;;;;;;12638878;23;20292;-74
2022/05/05 14:13:52;;;;;;;1.35;0.60;;;;;;;;;;12643666;23;20295;-76
2022/05/05 14:18:53;;;;;;;1.45;0.40;;;;;;;;;;12645041;23;20181;-74
2022/05/05 14:23:54;;;;;;;0.45;0.43;;;;;;;;;;12645493;23;20880;-74
2022/05/05 14:28:55;;;;;;;2.45;0.40;;;;;;;;;;12621817;23;20201;-74
2022/05/05 14:33:56;;;;;;;2.13;0.30;;;;;;;;;;12649012;23;20235;-75
2022/05/05 14:38:57;;;;;;;1.52;0.80;;;;;;;;;;12639694;23;20189;-75
2022/05/05 14:44:01;;;;;;;1.00;0.40;;;;;;;;;;12615104;23;20323;-75
2022/05/05 14:49:03;;;;;;;1.88;0.30;;;;;;;;;;12639647;23;20244;-75
2022/05/05 14:54:04;;;;;;;0.65;0.20;;;;;;;;;;12641941;23;20228;-74
2022/05/05 14:59:06;;;;;;;1.48;0.30;;;;;;;;;;12639886;23;21008;-75
2022/05/05 15:04:07;;;;;;;0.50;0.30;;;;;;;;;;12638956;23;20582;-75
2022/05/05 15:09:08;;;;;;;1.45;0.30;;;;;;;;;;12642332;23;20177;-74
2022/05/05 15:14:09;;;;;;;0.65;0.30;;;;;;;;;;12612266;23;20684;-74
2022/05/05 15:19:11;;;;;;;0.30;0.30;;;;;;;;;;12638076;23;20184;-75
2022/05/05 15:24:12;;;;;;;0.32;0.32;;;;;;;;;;12639171;23;20184;-74
2022/05/05 15:29:15;;;;;;;1.27;0.30;;;;;;;;;;12640403;23;20213;-74
2022/05/05 15:34:16;;;;;;;0.40;0.40;;;;;;;;;;12641053;23;20645;-74
2022/05/05 15:39:17;;;;;;;1.55;0.50;;;;;;;;;;12644233;23;20196;-74
2022/05/05 15:44:18;;;;;;;3.22;0.30;;;;;;;;;;12639939;23;20200;-74
2022/05/05 15:49:19;;;;;;;2.30;0.68;;;;;;;;;;12638551;23;20200;-74
2022/05/05 15:54:20;;;;;;;2.05;0.30;;;;;;;;;;12628740;23;20196;-73
2022/05/05 15:59:21;;;;;;;1.40;0.50;;;;;;;;;;12629295;23;20224;-73
2022/05/05 16:04:22;;;;;;;1.17;0.25;;;;;;;;;;12630374;23;20614;-73
2022/05/05 16:09:23;;;;;;;0.43;0.43;;;;;;;;;;12637416;23;20263;-73
2022/05/05 16:14:26;;;;;;;0.55;0.35;;;;;;;;;;12628075;23;20188;-73
2022/05/05 16:19:27;;;;;;;1.75;0.30;;;;;;;;;;12632248;23;20821;-74
2022/05/05 16:35:11;;;;;;;1.90;0.40;;;;;;;;;;12635922;23;20223;-74
2022/05/05 16:40:15;;;;;;;5.32;0.50;;;;;;;;;;12612730;23;20204;-73
2022/05/05 16:45:17;;;;;;;0.30;0.30;;;;;;;;;;12637397;23;20251;-73
2022/05/05 16:50:20;;;;;;;1.48;0.40;;;;;;;;;;12634540;23;20189;-74
2022/05/05 16:55:21;;;;;;;1.17;0.35;;;;;;;;;;12635697;23;20173;-73
2022/05/05 17:00:24;;;;;;;0.40;0.40;;;;;;;;;;12639641;23;20180;-73
2022/05/05 17:05:25;;;;;;;0.30;0.30;;;;;;;;;;12615609;23;20185;-74
2022/05/05 17:10:26;;;;;;;1.70;0.30;;;;;;;;;;12639472;23;20192;-74
2022/05/05 17:15:27;;;;;;;2.38;0.60;;;;;;;;;;12642802;23;20917;-74
2022/05/05 17:20:31;;;;;;;1.55;0.40;;;;;;;;;;12640885;23;20180;-74
2022/05/05 17:25:32;;;;;;;1.45;0.50;;;;;;;;;;12644183;23;20203;-74
2022/05/05 17:30:34;;;;;;;1.30;0.40;;;;;;;;;;12640597;23;20230;-75
2022/05/05 17:35:35;;;;;;;0.80;0.40;;;;;;;;;;12616705;23;20181;-74
2022/05/05 17:40:39;;;;;;;0.65;0.40;;;;;;;;;;12638781;23;20673;-74
2022/05/05 17:51:03;;;;;;;0.75;0.40;;;;;;;;;;12640793;23;20198;-74
2022/05/05 17:56:05;;;;;;;0.57;0.38;;;;;;;;;;12640910;23;20204;-74
2022/05/05 18:01:10;;;;;;;0.40;0.40;;;;;;;;;;12639467;23;20299;-74
2022/05/05 18:06:12;;;;;;;0.35;0.35;;;;;;;;;;12639976;23;20276;-74
2022/05/05 18:11:14;;;;;;;3.45;0.50;;;;;;;;;;12643190;23;20266;-74
2022/05/05 18:16:15;;;;;;;2.40;0.60;;;;;;;;;;12646050;23;20187;-74
2022/05/05 18:21:16;;;;;;;1.73;0.50;;;;;;;;;;12647450;23;20182;-74
2022/05/05 18:26:18;;;;;;;1.85;0.50;;;;;;;;;;12638892;23;20205;-74
2022/05/05 18:31:19;;;;;;;1.15;0.50;;;;;;;;;;12642845;23;21067;-74
2022/05/05 18:36:20;;;;;;;0.52;0.52;;;;;;;;;;12644250;23;20208;-74
2022/05/05 18:41:21;;;;;;;0.70;0.50;;;;;;;;;;12647957;23;20180;-74
2022/05/05 18:46:22;;;;;;;1.48;0.55;;;;;;;;;;12647807;23;20200;-74
2022/05/05 18:51:23;;;;;;;1.55;0.70;;;;;;;;;;12645488;23;20466;-74
2022/05/05 18:56:24;;;;;;;5.28;0.98;;;;;;;;;;12639339;23;20184;-74
2022/05/05 19:01:25;;;;;;;1.85;0.90;;;;;;;;;;12640017;23;20196;-73
2022/05/05 19:06:26;;;;;;;2.15;1.20;;;;;;;;;;12640529;23;20276;-73
2022/05/05 19:11:27;;;;;;;2.22;1.00;;;;;;;;;;12616621;23;20258;-73
2022/05/05 19:16:31;;;;;;;2.38;1.20;;;;;;;;;;12638950;23;20251;-74
2022/05/05 19:21:33;;;;;;;2.05;1.23;;;;;;;;;;12640956;23;20243;-73
2022/05/05 19:26:34;;;;;;;1.15;1.13;;;;;;;;;;12636681;23;20200;-74
2022/05/05 19:31:35;;;;;;;1.33;1.20;;;;;;;;;;12634113;23;20260;-73
2022/05/05 19:36:36;;;;;;;1.40;0.90;;;;;;;;;;12635448;23;20220;-74
2022/05/05 19:41:37;;;;;;;1.38;0.95;;;;;;;;;;12642588;23;20830;-72
2022/05/05 19:46:38;;;;;;;2.05;0.70;;;;;;;;;;12637883;23;20176;-73
2022/05/05 19:51:39;;;;;;;1.73;0.70;;;;;;;;;;12640507;23;20215;-73
2022/05/05 20:02:00;;;;;;;0.60;0.60;;;;;;;;;;12637474;23;20208;-72
2022/05/05 20:12:21;;;;;;;2.08;0.63;;;;;;;;;;12640231;23;20606;-72
2022/05/05 20:17:24;;;;;;;1.65;0.50;;;;;;;;;;12640343;23;20177;-72
2022/05/05 20:22:25;;;;;;;0.95;0.80;;;;;;;;;;12646223;23;20643;-74
2022/05/05 20:27:26;;;;;;;3.08;0.75;;;;;;;;;;12645000;23;20264;-71
2022/05/05 20:32:27;;;;;;;1.17;0.75;;;;;;;;;;12645387;23;20204;-71
2022/05/05 20:37:28;;;;;;;2.85;0.60;;;;;;;;;;12647729;23;20203;-72
2022/05/05 20:42:29;;;;;;;2.20;0.80;;;;;;;;;;12646621;23;20177;-72
2022/05/05 20:47:30;;;;;;;3.05;0.60;;;;;;;;;;12646380;23;20284;-71
2022/05/05 20:52:31;;;;;;;3.28;0.90;;;;;;;;;;12647750;23;20200;-72
2022/05/05 20:57:34;;;;;;;4.35;1.02;;;;;;;;;;12647662;23;20202;-71
2022/05/05 21:02:35;;;;;;;1.75;0.80;;;;;;;;;;12648866;23;20224;-72
2022/05/05 21:07:36;;;;;;;0.63;0.63;;;;;;;;;;12646834;23;20267;-72
2022/05/05 21:12:37;;;;;;;2.78;0.70;;;;;;;;;;12645394;23;20609;-72
2022/05/05 21:17:39;;;;;;;2.33;0.95;;;;;;;;;;12646918;23;20195;-72
2022/05/05 21:28:02;;;;;;;0.98;0.73;;;;;;;;;;12645304;23;20309;-72
2022/05/05 21:33:03;;;;;;;1.75;1.02;;;;;;;;;;12646610;23;20212;-71
2022/05/05 21:38:04;;;;;;;1.73;0.88;;;;;;;;;;12645802;23;21134;-72
2022/05/05 21:43:05;;;;;;;4.88;1.50;;;;;;;;;;12648007;23;21136;-72
2022/05/05 21:48:06;;;;;;;1.08;1.00;;;;;;;;;;12648886;23;20260;-71
2022/05/05 21:53:08;;;;;;;2.15;0.88;;;;;;;;;;12645560;23;20192;-72
2022/05/05 21:58:09;;;;;;;1.00;0.98;;;;;;;;;;12646104;23;20177;-72
2022/05/05 22:03:14;;;;;;;2.92;0.90;;;;;;;;;;12639573;23;20228;-72
2022/05/05 22:08:15;;;;;;;4.57;0.98;;;;;;;;;;12645897;23;20169;-73
2022/05/05 22:13:17;;;;;;;1.40;1.40;;;;;;;;;;12644749;23;20285;-73
2022/05/05 22:18:18;;;;;;;1.10;1.00;;;;;;;;;;12649042;23;20729;-72
2022/05/05 22:23:20;;;;;;;3.33;1.00;;;;;;;;;;12650079;23;20184;-72
2022/05/05 22:28:21;;;;;;;1.60;1.48;;;;;;;;;;12647235;23;20890;-73
2022/05/05 22:33:22;;;;;;;5.88;1.13;;;;;;;;;;12621655;23;20284;-73
2022/05/05 22:38:23;;;;;;;1.25;1.15;;;;;;;;;;12617022;23;20181;-73
2022/05/05 22:43:24;;;;;;;1.27;1.13;;;;;;;;;;12622067;23;20249;-72
2022/05/05 22:53:44;;;;;;;4.95;1.38;;;;;;;;;;12648451;23;20196;-73
2022/05/05 22:58:45;;;;;;;1.90;1.67;;;;;;;;;;12644462;23;20177;-73
2022/05/05 23:03:47;;;;;;;1.60;1.50;;;;;;;;;;12644582;23;20207;-73
2022/05/05 23:08:48;;;;;;;1.70;1.60;;;;;;;;;;12645045;23;20640;-72
2022/05/05 23:13:50;;;;;;;1.85;1.27;;;;;;;;;;12644079;23;20201;-73
2022/05/05 23:18:51;;;;;;;1.20;1.20;;;;;;;;;;12648084;23;20177;-72
2022/05/05 23:23:52;;;;;;;3.70;1.42;;;;;;;;;;12649202;23;20944;-73
2022/05/05 23:28:53;;;;;;;1.80;1.70;;;;;;;;;;12646623;23;20289;-73
2022/05/05 23:39:14;;;;;;;1.60;1.60;;;;;;;;;;12646956;23;20181;-73
2022/05/05 23:44:15;;;;;;;1.92;1.90;;;;;;;;;;12644339;23;20252;-72
2022/05/05 23:49:16;;;;;;;1.15;1.15;;;;;;;;;;12647747;23;20766;-73
2022/05/05 23:54:17;;;;;;;2.30;1.63;;;;;;;;;;12642279;23;21627;-73
2022/05/05 23:59:19;;;;;;;1.80;1.70;;;;;;;;;;12647515;23;20181;-72
